Time;durP1;ratioP1;P1;durP2;ratioP2;P2;SDS_P1;SDS_P2;PMS_P1;PMS_P2;Temp;Humidity;BMP_temperature;BMP_pressure;BME280_temperature;BME280_humidity;BME280_pressure;Samples;Min_cycle;Max_cycle;Signal;HPM_P1;HPM_P2
2022/12/18 00:03:47;;;;;;;155.73;52.87;;;;;;;-4.44;100.00;102807.63;10526937;28;20105;-77
2022/12/18 00:08:48;;;;;;;147.13;51.97;;;;;;;-4.41;100.00;102810.97;10508841;28;20393;-77
2022/12/18 00:13:48;;;;;;;157.00;52.13;;;;;;;-4.40;100.00;102810.00;10509498;28;20061;-76
2022/12/18 00:18:49;;;;;;;163.20;57.03;;;;;;;-4.48;100.00;102801.63;10525723;28;20044;-77
2022/12/18 00:23:50;;;;;;;159.07;51.50;;;;;;;-4.40;100.00;102807.31;10524839;28;20055;-78
2022/12/18 00:28:51;;;;;;;171.17;52.13;;;;;;;-4.33;100.00;102815.81;10541779;28;20024;-77
2022/12/18 00:33:56;;;;;;;167.80;51.67;;;;;;;-4.36;100.00;102800.75;10578754;27;20486;-77
2022/12/18 00:38:57;;;;;;;162.07;51.67;;;;;;;-4.41;100.00;102805.59;10583116;28;20032;-76
2022/12/18 00:43:58;;;;;;;151.60;50.37;;;;;;;-4.44;100.00;102824.63;10584298;27;20070;-76
2022/12/18 00:48:58;;;;;;;152.97;51.33;;;;;;;-4.56;100.00;102796.78;10550362;27;20041;-77
2022/12/18 00:53:59;;;;;;;141.53;47.27;;;;;;;-4.59;100.00;102794.28;10600103;27;20047;-77
2022/12/18 00:59:00;;;;;;;144.13;49.30;;;;;;;-4.62;100.00;102799.03;10541705;28;20114;-76
2022/12/18 01:04:02;;;;;;;140.07;46.40;;;;;;;-4.73;100.00;102795.28;10557256;27;20128;-77
2022/12/18 01:09:02;;;;;;;142.53;47.40;;;;;;;-4.77;100.00;102806.34;10541275;28;20044;-76
2022/12/18 01:14:03;;;;;;;142.53;48.13;;;;;;;-4.74;100.00;102828.47;10525358;28;20032;-76
2022/12/18 01:19:03;;;;;;;141.53;48.90;;;;;;;-4.91;100.00;102793.88;10540874;28;20056;-75
2022/12/18 01:24:04;;;;;;;141.17;48.33;;;;;;;-4.83;100.00;102818.38;10540498;28;20085;-77
2022/12/18 01:29:05;;;;;;;139.50;47.50;;;;;;;-4.88;100.00;102842.88;10523285;28;20040;-76
2022/12/18 01:34:05;;;;;;;133.03;46.80;;;;;;;-4.83;100.00;102834.50;10533903;28;20393;-77
2022/12/18 01:39:12;;;;;;;136.80;47.40;;;;;;;-4.88;100.00;102831.25;10553764;28;20044;-76
2022/12/18 01:44:51;;;;;;;142.37;45.60;;;;;;;-4.83;100.00;102841.72;10540076;28;20412;-76
2022/12/18 01:49:52;;;;;;;138.37;46.20;;;;;;;-4.85;100.00;102840.94;10541231;28;20032;-76
2022/12/18 01:54:52;;;;;;;140.97;46.10;;;;;;;-4.85;100.00;102836.44;10539687;28;20032;-77
2022/12/18 01:59:54;;;;;;;148.93;49.00;;;;;;;-4.95;100.00;102820.06;10522008;28;20522;-76
2022/12/18 02:04:54;;;;;;;136.07;48.53;;;;;;;-5.10;100.00;102832.72;10523068;28;20065;-76
2022/12/18 02:10:15;;;;;;;117.77;46.03;;;;;;;-5.14;100.00;102835.72;10575504;27;20032;-76
2022/12/18 02:15:29;;;;;;;134.80;47.20;;;;;;;-5.32;100.00;102843.19;10570718;27;20506;-76
2022/12/18 02:20:36;;;;;;;129.53;46.70;;;;;;;-5.56;100.00;102822.38;10572536;27;20474;-76
2022/12/18 02:26:01;;;;;;;123.20;47.07;;;;;;;-5.64;100.00;102848.84;10571085;27;20081;-75
2022/12/18 02:31:02;;;;;;;111.35;41.75;;;;;;;-5.76;100.00;102834.41;10589031;27;20047;-74
2022/12/18 02:36:03;;;;;;;126.13;43.27;;;;;;;-5.88;100.00;102830.69;10555865;27;20491;-76
2022/12/18 02:41:04;;;;;;;132.43;47.63;;;;;;;-5.95;100.00;102828.53;10552938;27;20039;-78
2022/12/18 02:46:30;;;;;;;137.63;46.20;;;;;;;-6.01;100.00;102831.63;10569421;27;20054;-77
2022/12/18 02:51:37;;;;;;;118.67;43.30;;;;;;;-6.19;100.00;102825.59;10586929;27;20031;-76
2022/12/18 02:56:40;;;;;;;121.50;44.20;;;;;;;-6.22;100.00;102815.03;10571408;28;20043;-77
2022/12/18 03:01:55;;;;;;;134.13;45.43;;;;;;;-6.31;100.00;102822.72;10570946;27;20032;-77
2022/12/18 03:06:57;;;;;;;140.50;48.55;;;;;;;-6.32;100.00;102838.91;10569871;27;20043;-78
2022/12/18 03:12:26;;;;;;;136.10;47.13;;;;;;;-6.73;100.00;102794.09;10552663;27;20118;-77
2022/12/18 03:17:27;;;;;;;136.30;47.23;;;;;;;-6.52;100.00;102845.50;10577972;27;20419;-77
2022/12/18 03:22:27;;;;;;;132.63;43.77;;;;;;;-6.68;100.00;102833.97;10568457;27;20031;-78
2022/12/18 03:27:28;;;;;;;127.27;43.43;;;;;;;-6.73;100.00;102843.16;10568082;27;20035;-76
2022/12/18 03:32:30;;;;;;;128.97;45.13;;;;;;;-6.82;100.00;102840.16;10568037;27;20091;-77
2022/12/18 03:37:31;;;;;;;126.47;45.60;;;;;;;-6.93;100.00;102827.44;10552708;27;20040;-75
2022/12/18 03:42:34;;;;;;;110.97;40.23;;;;;;;-6.91;100.00;102838.91;10538184;27;20044;-77
2022/12/18 03:47:53;;;;;;;99.27;37.47;;;;;;;-6.98;100.00;102819.69;10584535;27;20032;-76
2022/12/18 03:53:02;;;;;;;97.57;35.73;;;;;;;-6.99;100.00;102825.97;10571248;27;20118;-75
2022/12/18 03:58:03;;;;;;;75.47;32.23;;;;;;;-7.08;100.00;102814.97;10585220;27;20043;-74
2022/12/18 04:03:04;;;;;;;87.30;32.27;;;;;;;-7.07;100.00;102824.72;10567843;27;20035;-75
2022/12/18 04:08:04;;;;;;;78.50;30.17;;;;;;;-7.14;100.00;102827.75;10566763;27;20035;-74
2022/12/18 04:13:05;;;;;;;81.70;31.83;;;;;;;-7.26;100.00;102819.59;10566156;27;20095;-74
2022/12/18 04:18:05;;;;;;;71.10;30.10;;;;;;;-7.37;100.00;102806.84;10524090;28;20062;-75
2022/12/18 04:23:06;;;;;;;72.03;28.33;;;;;;;-7.47;100.00;102797.63;10524853;28;20381;-74
2022/12/18 04:28:06;;;;;;;78.27;29.60;;;;;;;-7.45;100.00;102827.84;10524424;28;20036;-74
2022/12/18 04:33:10;;;;;;;72.83;28.93;;;;;;;-7.52;100.00;102822.84;10507329;28;20047;-74
2022/12/18 04:38:11;;;;;;;72.70;29.27;;;;;;;-7.63;100.00;102819.91;10542640;28;20032;-74
2022/12/18 04:43:11;;;;;;;65.90;29.40;;;;;;;-7.67;100.00;102829.03;10523454;28;20032;-75
2022/12/18 04:48:12;;;;;;;61.57;26.43;;;;;;;-7.75;100.00;102825.94;10524385;28;20042;-75
2022/12/18 04:53:12;;;;;;;68.53;27.73;;;;;;;-7.90;100.00;102803.59;10524445;28;20055;-74
2022/12/18 04:58:13;;;;;;;62.70;27.63;;;;;;;-7.76;100.00;102813.53;10541615;28;20040;-74
2022/12/18 05:03:13;;;;;;;69.90;27.00;;;;;;;-7.78;100.00;102816.28;10558249;27;20503;-74
2022/12/18 05:08:15;;;;;;;65.40;28.03;;;;;;;-7.69;100.00;102827.41;10547831;27;20062;-76
2022/12/18 05:13:15;;;;;;;63.90;27.80;;;;;;;-7.65;100.00;102831.63;10566126;27;20035;-74
2022/12/18 05:18:16;;;;;;;64.97;26.07;;;;;;;-7.72;100.00;102828.47;10566623;27;20122;-74
2022/12/18 05:23:17;;;;;;;61.83;26.57;;;;;;;-7.64;100.00;102828.03;10565965;27;20043;-74
2022/12/18 05:28:17;;;;;;;57.87;25.60;;;;;;;-7.68;100.00;102845.19;10564386;27;20043;-74
2022/12/18 05:33:18;;;;;;;65.67;25.50;;;;;;;-7.72;100.00;102831.13;10564454;28;20635;-74
2022/12/18 05:38:20;;;;;;;54.03;26.10;;;;;;;-7.83;100.00;102829.06;10564269;28;20065;-74
2022/12/18 05:43:21;;;;;;;59.17;26.60;;;;;;;-7.79;100.00;102830.63;10587942;27;20103;-74
2022/12/18 05:48:22;;;;;;;68.63;25.30;;;;;;;-7.80;100.00;102839.56;10591481;27;20035;-74
2022/12/18 05:53:22;;;;;;;58.33;23.97;;;;;;;-7.80;100.00;102842.25;10574295;27;20061;-75
2022/12/18 05:58:23;;;;;;;55.17;23.03;;;;;;;-7.82;100.00;102838.81;10559731;27;20040;-75
2022/12/18 06:03:23;;;;;;;48.57;20.97;;;;;;;-7.83;100.00;102846.91;10556960;27;20035;-74
2022/12/18 06:08:24;;;;;;;58.63;24.93;;;;;;;-7.89;100.00;102840.09;10571694;28;20031;-74
2022/12/18 06:13:24;;;;;;;52.60;21.87;;;;;;;-7.97;100.00;102853.03;10555730;27;20039;-74
2022/12/18 06:18:25;;;;;;;50.03;21.00;;;;;;;-7.98;100.00;102870.91;10591277;27;20514;-74
2022/12/18 06:23:25;;;;;;;50.23;23.13;;;;;;;-8.05;100.00;102872.16;10588879;27;20035;-74
2022/12/18 06:28:26;;;;;;;53.00;24.03;;;;;;;-7.97;100.00;102893.13;10582693;27;20039;-74
2022/12/18 06:33:27;;;;;;;46.73;20.23;;;;;;;-8.03;100.00;102891.66;10571202;27;20459;-74
2022/12/18 06:38:28;;;;;;;45.80;21.50;;;;;;;-8.11;100.00;102886.72;10551654;27;20122;-74
2022/12/18 06:43:28;;;;;;;54.13;21.47;;;;;;;-8.04;100.00;102884.59;10586361;27;20032;-73
2022/12/18 06:48:29;;;;;;;51.43;21.17;;;;;;;-8.11;100.00;102872.50;10571887;27;20032;-74
2022/12/18 06:53:29;;;;;;;53.20;21.50;;;;;;;-8.09;100.00;102867.94;10570381;27;20043;-74
2022/12/18 06:58:30;;;;;;;44.77;20.67;;;;;;;-8.24;100.00;102839.38;10553662;27;20415;-74
2022/12/18 07:03:30;;;;;;;46.90;22.37;;;;;;;-8.21;100.00;102856.09;10568508;27;20059;-75
2022/12/18 07:08:31;;;;;;;45.57;20.40;;;;;;;-8.25;100.00;102848.31;10569635;27;20124;-74
2022/12/18 07:13:32;;;;;;;43.17;20.13;;;;;;;-8.25;100.00;102862.53;10569748;27;20431;-74
2022/12/18 07:18:32;;;;;;;46.93;20.13;;;;;;;-8.33;100.00;102830.91;10570860;27;20072;-74
2022/12/18 07:23:33;;;;;;;39.73;17.77;;;;;;;-8.29;100.00;102820.03;10553316;27;20039;-74
2022/12/18 07:28:35;;;;;;;45.03;21.27;;;;;;;-8.19;100.00;102832.81;10569417;27;20028;-74
2022/12/18 07:33:35;;;;;;;40.70;19.03;;;;;;;-8.35;100.00;102784.72;10537701;28;20074;-74
2022/12/18 07:38:36;;;;;;;39.63;18.50;;;;;;;-8.15;100.00;102801.44;10545562;28;20036;-74
2022/12/18 07:43:37;;;;;;;49.40;18.70;;;;;;;-8.15;100.00;102801.44;10544505;28;20075;-71
2022/12/18 07:48:37;;;;;;;35.53;19.40;;;;;;;-8.12;100.00;102802.16;10528033;28;20115;-74
2022/12/18 07:53:38;;;;;;;36.90;19.33;;;;;;;-8.06;100.00;102808.97;10526410;28;20059;-76
2022/12/18 07:58:38;;;;;;;50.53;19.83;;;;;;;-7.98;100.00;102806.75;10559402;28;20115;-77
2022/12/18 08:03:39;;;;;;;39.80;18.43;;;;;;;-7.79;100.00;102821.72;10556609;28;20082;-74
2022/12/18 08:08:42;;;;;;;36.53;17.63;;;;;;;-7.77;100.00;102818.03;10535549;28;20074;-74
2022/12/18 08:13:42;;;;;;;32.10;16.50;;;;;;;-7.64;100.00;102822.69;10526542;28;20032;-74
2022/12/18 08:18:42;;;;;;;37.43;19.13;;;;;;;-7.47;100.00;102824.38;10544479;28;20043;-74
2022/12/18 08:23:43;;;;;;;39.30;17.60;;;;;;;-7.32;100.00;102834.19;10525422;28;20028;-74
2022/12/18 08:28:43;;;;;;;37.37;18.00;;;;;;;-7.28;100.00;102813.47;10508684;28;20028;-74
2022/12/18 08:33:44;;;;;;;32.37;16.37;;;;;;;-7.13;100.00;102826.81;10541534;28;20066;-74
2022/12/18 08:38:45;;;;;;;30.60;16.30;;;;;;;-7.16;100.00;102813.59;10524985;28;20035;-73
2022/12/18 08:49:05;;;;;;;32.57;15.40;;;;;;;-6.92;100.00;102807.75;10562777;28;20036;-74
2022/12/18 08:54:06;;;;;;;34.50;15.97;;;;;;;-6.71;100.00;102835.91;10560373;28;20036;-74
2022/12/18 08:59:06;;;;;;;28.63;15.40;;;;;;;-6.59;100.00;102828.09;10541726;28;20059;-74
2022/12/18 09:04:07;;;;;;;31.23;15.20;;;;;;;-6.50;100.00;102816.78;10538993;27;20058;-73
2022/12/18 09:09:09;;;;;;;25.77;13.80;;;;;;;-6.39;100.00;102819.66;10526989;28;20419;-73
2022/12/18 09:14:09;;;;;;;27.63;14.53;;;;;;;-6.31;100.00;102841.47;10524704;28;20032;-73
2022/12/18 09:19:10;;;;;;;25.70;13.53;;;;;;;-6.15;100.00;102853.94;10540115;28;20062;-74
2022/12/18 09:24:12;;;;;;;23.87;13.73;;;;;;;-6.04;100.00;102851.41;10507435;28;20035;-75
2022/12/18 09:29:12;;;;;;;23.20;13.03;;;;;;;-5.91;100.00;102846.97;10540009;28;20044;-76
2022/12/18 09:34:13;;;;;;;21.27;12.33;;;;;;;-5.73;100.00;102844.06;10494689;28;20047;-76
2022/12/18 09:39:13;;;;;;;20.20;10.27;;;;;;;-5.57;100.00;102857.34;10544112;28;20040;-76
2022/12/18 09:44:29;;;;;;;21.00;10.37;;;;;;;-5.41;100.00;102827.69;10528560;28;20051;-73
2022/12/18 09:49:30;;;;;;;17.77;10.95;;;;;;;-5.15;100.00;102808.00;10547668;28;20078;-74
2022/12/18 09:54:40;;;;;;;14.80;9.10;;;;;;;-4.99;100.00;102780.09;10542369;28;20110;-73
2022/12/18 09:59:41;;;;;;;17.70;10.80;;;;;;;-4.83;100.00;102767.31;10510348;28;20032;-74
2022/12/18 10:04:41;;;;;;;13.30;8.77;;;;;;;-4.68;100.00;102793.13;10527301;28;20055;-73
2022/12/18 10:10:33;;;;;;;13.73;7.97;;;;;;;-4.60;100.00;102791.75;10527706;28;20063;-74
2022/12/18 10:15:39;;;;;;;15.73;8.37;;;;;;;-4.67;100.00;102781.41;10534765;28;20042;-74
2022/12/18 10:20:51;;;;;;;13.43;8.63;;;;;;;-4.67;100.00;102784.09;10548488;28;20099;-74
2022/12/18 10:26:05;;;;;;;14.80;8.23;;;;;;;-4.69;100.00;102761.00;10531455;28;20027;-75
2022/12/18 10:31:07;;;;;;;16.50;9.10;;;;;;;-4.51;100.00;102765.03;10573222;27;20023;-74
2022/12/18 10:36:08;;;;;;;15.40;8.43;;;;;;;-4.38;100.00;102762.38;10572147;27;20031;-74
2022/12/18 10:41:18;;;;;;;13.30;7.50;;;;;;;-4.10;100.00;102763.91;10535437;27;20036;-75
2022/12/18 10:46:21;;;;;;;14.37;8.20;;;;;;;-3.98;100.00;102767.53;10552915;28;20161;-75
2022/12/18 10:51:27;;;;;;;15.30;8.13;;;;;;;-3.93;100.00;102754.59;10562454;28;20500;-75
2022/12/18 10:56:28;;;;;;;;;;;;;;;-3.83;100.00;102753.91;10529558;28;20036;-75
2022/12/18 11:01:50;;;;;;;12.83;6.30;;;;;;;-3.78;100.00;102731.09;10529186;28;19920;-75
2022/12/18 11:06:55;;;;;;;14.77;7.70;;;;;;;-3.87;100.00;102694.94;10562335;28;20047;-76
2022/12/18 11:11:57;;;;;;;10.47;6.80;;;;;;;-3.51;100.00;102709.28;10545215;28;20044;-76
2022/12/18 11:16:58;;;;;;;11.17;6.63;;;;;;;-3.41;100.00;102700.50;10560836;28;20044;-76
2022/12/18 11:21:59;;;;;;;14.17;6.83;;;;;;;-3.31;100.00;102679.97;10544861;28;20035;-77
2022/12/18 11:27:01;;;;;;;14.17;7.10;;;;;;;-3.12;100.00;102692.84;10512430;28;20230;-76
2022/12/18 11:32:14;;;;;;;17.00;7.30;;;;;;;-3.00;100.00;102683.81;10527157;28;20054;-77
2022/12/18 11:37:15;;;;;;;12.60;6.77;;;;;;;-3.02;100.00;102664.22;10543652;28;20047;-77
2022/12/18 11:42:22;;;;;;;11.03;5.97;;;;;;;-2.84;100.00;102672.69;10532894;27;20404;-77
2022/12/18 11:47:34;;;;;;;8.80;6.43;;;;;;;-2.90;100.00;102648.91;10556386;27;20058;-79
2022/12/18 11:52:39;;;;;;;11.40;5.80;;;;;;;-2.67;100.00;102674.91;10535546;27;20047;-78
2022/12/18 11:57:46;;;;;;;10.40;6.17;;;;;;;-2.61;100.00;102680.78;10544968;28;20040;-78
2022/12/18 12:03:10;;;;;;;8.83;6.00;;;;;;;-2.57;100.00;102669.59;10556855;27;20035;-78
2022/12/18 12:08:25;;;;;;;12.77;6.70;;;;;;;-2.54;100.00;102655.00;10561086;27;20054;-77
2022/12/18 12:13:35;;;;;;;10.43;6.43;;;;;;;-2.63;100.00;102621.56;10542986;28;20109;-78
2022/12/18 12:18:49;;;;;;;10.23;5.60;;;;;;;-2.50;100.00;102622.31;10559464;28;20338;-78
2022/12/18 12:24:30;;;;;;;8.90;6.03;;;;;;;-2.45;100.00;102613.81;10544044;28;20036;-78
2022/12/18 12:29:49;;;;;;;9.27;6.40;;;;;;;-2.39;100.00;102590.88;10528484;28;20070;-78
2022/12/18 12:35:01;;;;;;;13.40;7.13;;;;;;;-2.35;100.00;102589.66;10543027;28;20510;-78
2022/12/18 12:40:01;;;;;;;9.07;6.13;;;;;;;-2.37;100.00;102570.88;10561784;27;20048;-78
2022/12/18 12:45:04;;;;;;;15.60;6.23;;;;;;;-2.31;100.00;102564.97;10543408;27;20028;-78
2022/12/18 12:50:06;;;;;;;9.90;6.47;;;;;;;-2.40;100.00;102552.25;10553005;28;20040;-78
2022/12/18 12:55:07;;;;;;;10.37;6.60;;;;;;;-2.64;100.00;102491.28;10530136;27;20093;-78
2022/12/18 13:00:14;;;;;;;10.43;6.77;;;;;;;-2.24;100.00;102552.69;10534829;28;20108;-78
2022/12/18 13:05:44;;;;;;;11.43;7.00;;;;;;;-2.25;100.00;102545.59;10572274;27;20070;-78
2022/12/18 13:10:44;;;;;;;11.27;7.03;;;;;;;-2.34;100.00;102513.97;10554683;27;20040;-79
2022/12/18 13:15:50;;;;;;;13.17;7.53;;;;;;;-2.39;100.00;102508.13;10540427;28;20043;-79
2022/12/18 13:20:56;;;;;;;16.02;8.18;;;;;;;-2.29;100.00;102506.38;10542044;28;20454;-79
2022/12/18 13:26:00;;;;;;;11.40;8.40;;;;;;;-2.32;100.00;102501.22;10580929;28;20048;-79
2022/12/18 13:31:01;;;;;;;12.50;6.87;;;;;;;-2.25;100.00;102502.41;10598667;27;20040;-79
2022/12/18 13:36:03;;;;;;;11.57;7.33;;;;;;;-2.28;100.00;102507.22;10547014;28;20050;-79
2022/12/18 13:41:29;;;;;;;13.40;8.77;;;;;;;-2.32;100.00;102479.63;10561082;28;20039;-79
2022/12/18 13:46:46;;;;;;;11.43;7.67;;;;;;;-2.42;100.00;102470.59;10544321;28;20042;-80
2022/12/18 13:51:48;;;;;;;;;;;;;;;-2.46;100.00;102466.47;10550109;28;20035;-78
2022/12/18 13:56:49;;;;;;;14.33;8.27;;;;;;;-2.64;100.00;102453.56;10579574;28;19943;-79
2022/12/18 14:02:00;;;;;;;15.40;9.40;;;;;;;-2.73;100.00;102457.03;10547890;28;20039;-78
2022/12/18 14:07:05;;;;;;;13.27;7.57;;;;;;;-2.77;100.00;102463.66;10519505;27;20047;-79
2022/12/18 14:17:25;;;;;;;16.80;9.37;;;;;;;-2.84;100.00;102446.28;10569290;27;20050;-79
2022/12/18 14:22:29;;;;;;;15.33;9.07;;;;;;;-2.96;100.00;102420.34;10534665;27;20036;-78
2022/12/18 14:27:29;;;;;;;17.40;9.67;;;;;;;-3.01;100.00;102433.34;10551449;27;20032;-78
2022/12/18 14:32:30;;;;;;;17.20;10.27;;;;;;;-3.07;100.00;102451.72;10574833;27;20431;-78
2022/12/18 14:37:30;;;;;;;20.67;9.67;;;;;;;-3.14;100.00;102437.06;10576009;27;20035;-78
2022/12/18 14:42:31;;;;;;;17.00;9.23;;;;;;;-3.29;100.00;102414.06;10582292;27;20066;-78
2022/12/18 14:47:32;;;;;;;16.53;10.10;;;;;;;-3.34;100.00;102416.28;10533555;28;20048;-78
2022/12/18 14:52:32;;;;;;;12.67;9.13;;;;;;;-3.42;100.00;102407.97;10564985;28;20066;-78
2022/12/18 14:57:36;;;;;;;19.37;10.10;;;;;;;-3.42;100.00;102407.97;10537484;28;20036;-74
2022/12/18 15:02:36;;;;;;;19.17;10.63;;;;;;;-3.42;100.00;102397.19;10574173;27;20036;-77
2022/12/18 15:07:41;;;;;;;17.30;9.87;;;;;;;-3.40;100.00;102400.63;10560003;27;20064;-77
2022/12/18 15:12:42;;;;;;;17.90;9.73;;;;;;;-3.42;100.00;102402.59;10562289;27;20036;-78
2022/12/18 15:17:42;;;;;;;16.90;8.73;;;;;;;-3.52;100.00;102380.94;10548608;28;20047;-78
2022/12/18 15:22:43;;;;;;;15.00;9.93;;;;;;;-3.56;100.00;102372.25;10545078;28;20032;-77
2022/12/18 15:27:45;;;;;;;14.40;9.33;;;;;;;-3.44;100.00;102397.31;10527224;28;20040;-76
2022/12/18 15:32:46;;;;;;;17.40;10.07;;;;;;;-3.43;100.00;102379.31;10510357;28;20036;-77
2022/12/18 15:37:46;;;;;;;14.77;8.70;;;;;;;-3.52;100.00;102360.25;10551456;27;20039;-72
2022/12/18 15:48:19;;;;;;;15.77;8.87;;;;;;;-3.47;100.00;102360.75;10585690;27;20043;-77
2022/12/18 15:53:19;;;;;;;16.97;10.13;;;;;;;-3.46;100.00;102359.75;10552391;28;20040;-77
2022/12/18 15:58:20;;;;;;;16.53;9.07;;;;;;;-3.57;100.00;102335.56;10581236;27;20043;-77
2022/12/18 16:03:21;;;;;;;11.03;8.23;;;;;;;-3.64;100.00;102299.34;10578182;27;20036;-76
2022/12/18 16:08:22;;;;;;;15.87;8.67;;;;;;;-3.49;100.00;102316.94;10572244;27;20043;-77
2022/12/18 16:13:22;;;;;;;14.40;8.03;;;;;;;-3.51;100.00;102289.28;10598731;27;20043;-76
2022/12/18 16:18:23;;;;;;;16.20;8.83;;;;;;;-3.49;100.00;102278.38;10547959;27;20035;-77
2022/12/18 16:23:24;;;;;;;13.77;8.10;;;;;;;-3.48;100.00;102269.31;10564545;28;20047;-76
2022/12/18 16:28:24;;;;;;;14.47;8.43;;;;;;;-3.49;100.00;102240.69;10561834;28;20032;-76
2022/12/18 16:33:25;;;;;;;11.03;7.60;;;;;;;-3.38;100.00;102247.88;10564921;27;21598;-72
2022/12/18 16:38:25;;;;;;;11.50;6.73;;;;;;;-3.33;100.00;102240.25;10577871;27;22186;-76
2022/12/18 16:43:26;;;;;;;11.93;6.40;;;;;;;-3.22;100.00;102242.00;10560621;27;20039;-76
2022/12/18 16:48:26;;;;;;;10.00;6.40;;;;;;;-3.19;100.00;102229.16;10577840;27;20047;-76
2022/12/18 16:53:28;;;;;;;10.17;6.33;;;;;;;-3.11;100.00;102234.72;10550361;28;20036;-77
2022/12/18 16:58:28;;;;;;;11.43;6.37;;;;;;;-3.02;100.00;102221.47;10521741;27;20056;-77
2022/12/18 17:03:29;;;;;;;8.77;4.93;;;;;;;-2.96;100.00;102207.47;10578172;28;20080;-77
2022/12/18 17:08:29;;;;;;;9.17;5.03;;;;;;;-2.86;100.00;102217.31;10580552;27;20099;-77
2022/12/18 17:13:30;;;;;;;9.47;5.50;;;;;;;-2.77;100.00;102221.06;10562144;28;20035;-77
2022/12/18 17:18:30;;;;;;;7.10;4.63;;;;;;;-2.71;100.00;102203.47;10579805;28;20050;-77
2022/12/18 17:23:31;;;;;;;9.17;5.50;;;;;;;-2.66;100.00;102194.00;10580193;28;20066;-74
2022/12/18 17:28:31;;;;;;;8.73;4.87;;;;;;;-2.64;100.00;102185.78;10581633;28;20111;-77
2022/12/18 17:33:32;;;;;;;8.87;4.97;;;;;;;-2.59;100.00;102169.19;10569142;28;20040;-77
2022/12/18 17:38:32;;;;;;;8.30;5.03;;;;;;;-2.54;100.00;102185.81;10514107;28;20036;-76
2022/12/18 17:43:35;;;;;;;11.33;5.30;;;;;;;-2.54;100.00;102175.91;10536716;28;20104;-78
2022/12/18 17:48:36;;;;;;;10.53;5.30;;;;;;;-2.95;100.00;102120.25;10570135;27;20036;-77
2022/12/18 17:53:40;;;;;;;14.80;5.60;;;;;;;-2.51;100.00;102161.28;10589483;27;20032;-77
2022/12/18 17:58:41;;;;;;;8.00;4.97;;;;;;;-2.47;100.00;102165.41;10589711;27;20047;-77
2022/12/18 18:03:41;;;;;;;7.97;5.13;;;;;;;-2.49;100.00;102160.16;10570098;28;20032;-77
2022/12/18 18:08:42;;;;;;;13.83;5.43;;;;;;;-2.41;100.00;102164.88;10587607;27;20404;-78
2022/12/18 18:14:00;;;;;;;10.67;5.70;;;;;;;-2.42;100.00;102149.66;10540139;27;20032;-78
2022/12/18 18:19:06;;;;;;;8.87;4.97;;;;;;;-2.39;100.00;102152.09;10576686;27;20039;-78
2022/12/18 18:24:07;;;;;;;9.63;5.53;;;;;;;-2.41;100.00;102140.59;10556582;27;20036;-77
2022/12/18 18:29:13;;;;;;;9.23;5.17;;;;;;;-2.47;100.00;102125.81;10541051;28;20040;-78
2022/12/18 18:34:15;;;;;;;8.10;5.10;;;;;;;-2.41;100.00;102119.00;10559455;27;20081;-78
2022/12/18 18:39:15;;;;;;;9.10;4.83;;;;;;;-2.33;100.00;102135.34;10571352;27;20042;-78
2022/12/18 18:44:16;;;;;;;8.47;4.67;;;;;;;-2.32;100.00;102134.34;10605625;27;20502;-78
2022/12/18 18:49:17;;;;;;;12.00;5.33;;;;;;;-2.28;100.00;102113.34;10602753;27;20044;-78
2022/12/18 18:54:17;;;;;;;13.53;6.63;;;;;;;-2.33;100.00;102119.16;10570198;27;20461;-78
2022/12/18 18:59:18;;;;;;;9.67;5.13;;;;;;;-2.32;100.00;102120.03;10588074;27;20123;-78
2022/12/18 19:04:18;;;;;;;7.60;4.67;;;;;;;-2.29;100.00;102107.13;10570362;27;20044;-78
2022/12/18 19:09:19;;;;;;;7.47;4.70;;;;;;;-2.29;100.00;102112.50;10587223;27;20143;-78
2022/12/18 19:14:19;;;;;;;8.73;5.30;;;;;;;-2.29;100.00;102103.56;10549998;28;20046;-78
2022/12/18 19:19:20;;;;;;;10.07;4.87;;;;;;;-2.37;100.00;102088.06;10569317;27;20035;-72
2022/12/18 19:24:21;;;;;;;9.13;5.30;;;;;;;-2.30;100.00;102094.59;10567882;27;20040;-78
2022/12/18 19:29:21;;;;;;;8.77;5.23;;;;;;;-2.21;100.00;102105.53;10568517;27;20047;-78
2022/12/18 19:34:22;;;;;;;9.40;5.73;;;;;;;-2.26;100.00;102090.63;10556397;27;20028;-79
2022/12/18 19:39:22;;;;;;;11.53;5.90;;;;;;;-2.27;100.00;102086.25;10572330;27;20040;-78
2022/12/18 19:44:23;;;;;;;9.23;6.07;;;;;;;-2.21;100.00;102108.25;10564830;27;20036;-78
2022/12/18 19:49:23;;;;;;;9.03;4.67;;;;;;;-2.19;100.00;102106.25;10546348;28;20047;-79
2022/12/18 19:54:24;;;;;;;7.83;4.73;;;;;;;-2.27;100.00;102088.94;10546459;28;20032;-78
2022/12/18 19:59:24;;;;;;;9.00;6.17;;;;;;;-2.17;100.00;102098.88;10537840;27;20040;-78
2022/12/18 20:04:25;;;;;;;8.47;4.93;;;;;;;-2.16;100.00;102106.00;10558806;28;20124;-74
2022/12/18 20:09:25;;;;;;;11.30;6.43;;;;;;;-2.14;100.00;102083.25;10557941;28;20043;-78
2022/12/18 20:14:26;;;;;;;10.87;5.77;;;;;;;-2.11;100.00;102074.03;10581845;27;20035;-79
2022/12/18 20:19:26;;;;;;;9.43;5.80;;;;;;;-2.03;100.00;102068.78;10580909;27;20067;-79
2022/12/18 20:24:27;;;;;;;12.57;6.60;;;;;;;-1.99;100.00;102059.41;10557092;27;20031;-79
2022/12/18 20:29:27;;;;;;;12.90;6.38;;;;;;;-1.90;100.00;102052.28;10545214;27;20039;-79
2022/12/18 20:34:28;;;;;;;11.50;6.50;;;;;;;-1.91;100.00;102037.94;10574187;27;20039;-79
2022/12/18 20:39:28;;;;;;;14.43;7.70;;;;;;;-1.84;100.00;102052.59;10579319;28;20047;-79
2022/12/18 20:44:29;;;;;;;10.90;6.27;;;;;;;-1.68;100.00;102057.38;10555344;28;20491;-78
2022/12/18 20:49:29;;;;;;;12.43;6.90;;;;;;;-1.75;100.00;102028.41;10547459;27;20044;-80
2022/12/18 20:54:30;;;;;;;14.13;7.50;;;;;;;-1.61;100.00;102036.06;10573585;28;20085;-79
2022/12/18 20:59:30;;;;;;;12.40;6.77;;;;;;;-1.51;100.00;102042.31;10542159;28;20032;-78
2022/12/18 21:04:31;;;;;;;15.30;7.50;;;;;;;-1.56;100.00;102022.97;10560720;28;20032;-80
2022/12/18 21:09:32;;;;;;;13.97;7.63;;;;;;;-1.48;100.00;102033.03;10532900;28;20044;-79
2022/12/18 21:14:32;;;;;;;15.40;8.53;;;;;;;-1.49;100.00;102016.00;10544336;28;20044;-79
2022/12/18 21:19:33;;;;;;;15.37;8.67;;;;;;;-1.38;100.00;102022.22;10544425;28;20051;-80
2022/12/18 21:24:33;;;;;;;13.37;8.07;;;;;;;-1.35;100.00;102019.19;10559378;28;20060;-78
2022/12/18 21:29:34;;;;;;;16.77;8.83;;;;;;;-1.31;100.00;102016.06;10548104;28;20036;-79
2022/12/18 21:34:34;;;;;;;17.90;9.67;;;;;;;-1.29;100.00;102024.00;10556868;28;20559;-80
2022/12/18 21:39:35;;;;;;;17.23;9.90;;;;;;;-1.65;100.00;101953.66;10558554;28;20043;-79
2022/12/18 21:44:36;;;;;;;18.60;9.87;;;;;;;-1.29;100.00;102000.53;10564031;28;20032;-79
2022/12/18 21:49:36;;;;;;;15.97;10.17;;;;;;;-1.19;100.00;101995.09;10538751;28;20043;-79
2022/12/18 21:54:36;;;;;;;16.77;9.50;;;;;;;-1.18;100.00;101972.47;10542786;28;20031;-79
2022/12/18 21:59:38;;;;;;;20.47;10.23;;;;;;;-1.17;100.00;101974.19;10517679;28;20040;-80
2022/12/18 22:04:39;;;;;;;19.27;10.83;;;;;;;-1.10;100.00;101979.84;10540407;28;20028;-79
2022/12/18 22:09:40;;;;;;;19.67;10.57;;;;;;;-1.26;100.00;101932.72;10548228;28;20394;-79
2022/12/18 22:14:40;;;;;;;22.57;11.93;;;;;;;-1.09;100.00;101960.78;10581274;28;20063;-80
2022/12/18 22:19:41;;;;;;;21.93;10.40;;;;;;;-1.02;100.00;101966.41;10580783;28;20046;-80
2022/12/18 22:24:41;;;;;;;19.60;10.23;;;;;;;-0.98;100.00;101962.41;10585365;27;20032;-80
2022/12/18 22:35:02;;;;;;;22.40;11.37;;;;;;;-0.83;100.00;101946.50;10555276;28;20040;-80
2022/12/18 22:40:04;;;;;;;21.93;12.13;;;;;;;-0.85;100.00;101938.59;10536487;28;20081;-80
2022/12/18 22:45:05;;;;;;;21.50;11.80;;;;;;;-0.79;100.00;101931.69;10567693;27;20039;-79
2022/12/18 22:50:06;;;;;;;23.97;12.70;;;;;;;-0.82;100.00;101915.78;10570733;27;20036;-79
2022/12/18 22:55:06;;;;;;;22.83;12.77;;;;;;;-0.83;100.00;101922.19;10587389;27;20057;-81